createdAt,value
2019-04-26T00:02:04.037Z,12.33
2019-04-26T00:04:33.761Z,12.27
2019-04-26T00:07:03.587Z,12.27
2019-04-26T00:09:38.344Z,12.12
2019-04-26T00:12:11.314Z,11.93
2019-04-26T00:14:59.276Z,12.08
2019-04-26T00:17:33.110Z,11.88
2019-04-26T00:20:02.876Z,11.82
2019-04-26T00:22:32.707Z,11.71
2019-04-26T00:25:02.266Z,11.79
2019-04-26T00:27:32.026Z,11.60
2019-04-26T00:30:01.522Z,11.49
2019-04-26T00:32:31.342Z,11.60
2019-04-26T00:35:00.832Z,11.65
2019-04-26T00:37:30.307Z,11.54
2019-04-26T00:39:59.806Z,11.42
2019-04-26T00:42:30.187Z,11.48
2019-04-26T00:45:00.347Z,11.58
2019-04-26T00:47:30.352Z,11.57
2019-04-26T00:50:01.569Z,11.40
2019-04-26T00:52:32.023Z,11.08
2019-04-26T00:55:02.040Z,10.73
2019-04-26T00:57:33.514Z,10.94
2019-04-26T01:00:05.710Z,11.03
2019-04-26T01:02:36.842Z,11.01
2019-04-26T01:05:07.043Z,11.00
2019-04-26T01:07:36.483Z,10.94
2019-04-26T01:10:06.532Z,10.93
2019-04-26T01:12:36.274Z,10.93
2019-04-26T01:15:07.928Z,10.97
2019-04-26T01:17:37.650Z,11.03
2019-04-26T01:20:08.204Z,11.04
2019-04-26T01:22:42.355Z,10.98
2019-04-26T01:25:25.553Z,10.72
2019-04-26T01:27:54.985Z,10.86
2019-04-26T01:30:25.847Z,10.76
2019-04-26T01:32:55.360Z,10.63
2019-04-26T01:35:34.326Z,10.76
2019-04-26T01:38:06.719Z,10.68
2019-04-26T01:40:37.828Z,10.75
2019-04-26T01:43:25.216Z,10.63
2019-04-26T01:45:59.375Z,10.62
2019-04-26T01:48:46.000Z,10.51
2019-04-26T01:51:22.824Z,10.54
2019-04-26T01:53:53.492Z,10.54
2019-04-26T01:56:27.817Z,10.52
2019-04-26T01:58:57.335Z,10.37
2019-04-26T02:01:44.430Z,10.35
2019-04-26T02:04:14.014Z,10.30
2019-04-26T02:06:43.455Z,10.20
2019-04-26T02:09:13.461Z,10.22
2019-04-26T02:11:44.048Z,10.19
2019-04-26T02:14:13.592Z,10.16
2019-04-26T02:16:43.145Z,10.18
2019-04-26T02:19:12.885Z,10.25
2019-04-26T02:21:47.931Z,10.32
2019-04-26T02:24:28.024Z,10.47
2019-04-26T02:26:58.034Z,10.23
2019-04-26T02:29:28.781Z,10.30
2019-04-26T02:32:02.195Z,10.08
2019-04-26T02:34:36.071Z,10.10
2019-04-26T02:37:08.577Z,10.06
2019-04-26T02:39:42.681Z,10.08
2019-04-26T02:42:32.942Z,9.90
2019-04-26T02:45:19.209Z,9.82
2019-04-26T02:47:54.919Z,9.69
2019-04-26T02:50:34.822Z,9.72
2019-04-26T02:53:20.860Z,9.79
2019-04-26T02:56:16.508Z,9.83
2019-04-26T02:59:03.223Z,9.94
2019-04-26T03:01:34.475Z,10.00
2019-04-26T03:04:04.474Z,9.91
2019-04-26T03:06:36.780Z,9.93
2019-04-26T03:09:07.996Z,10.02
2019-04-26T03:11:48.036Z,10.04
2019-04-26T03:14:21.971Z,9.90
2019-04-26T03:16:57.749Z,9.92
2019-04-26T03:19:53.749Z,10.01
2019-04-26T03:22:48.820Z,10.08
2019-04-26T03:25:33.316Z,9.99
2019-04-26T03:28:29.006Z,9.99
2019-04-26T03:31:15.106Z,9.89
2019-04-26T03:34:10.520Z,9.84
2019-04-26T03:37:20.623Z,9.96
2019-04-26T03:40:01.230Z,9.92
2019-04-26T03:42:51.944Z,10.03
2019-04-26T03:45:36.420Z,10.06
2019-04-26T03:48:52.856Z,10.09
2019-04-26T03:51:49.981Z,10.16
2019-04-26T03:54:26.751Z,10.15
2019-04-26T03:57:13.566Z,10.13
2019-04-26T03:59:54.383Z,10.05
2019-04-26T04:02:53.189Z,10.09
2019-04-26T04:05:47.812Z,10.25
2019-04-26T04:08:38.489Z,10.14
2019-04-26T04:11:15.026Z,10.20
2019-04-26T04:13:51.310Z,10.12
2019-04-26T04:16:50.890Z,10.12
2019-04-26T04:20:01.762Z,10.14
2019-04-26T04:22:45.875Z,10.11
2019-04-26T04:25:40.018Z,9.86
2019-04-26T04:28:49.414Z,10.01
2019-04-26T04:31:29.584Z,10.03
2019-04-26T04:34:09.538Z,9.99
2019-04-26T04:36:46.886Z,9.81
2019-04-26T04:39:32.793Z,10.03
2019-04-26T04:42:11.269Z,10.05
2019-04-26T04:45:04.128Z,10.09
2019-04-26T04:48:14.642Z,10.11
2019-04-26T04:50:51.214Z,10.17
2019-04-26T04:53:41.200Z,10.19
2019-04-26T04:56:43.602Z,10.44
2019-04-26T04:59:39.083Z,10.45
2019-04-26T05:02:48.654Z,10.37
2019-04-26T05:05:30.826Z,10.46
2019-04-26T05:08:16.933Z,10.48
2019-04-26T05:11:14.993Z,10.56
2019-04-26T05:13:54.930Z,10.47
2019-04-26T05:17:16.527Z,10.56
2019-04-26T05:20:28.151Z,10.60
2019-04-26T05:23:27.561Z,10.66
2019-04-26T05:26:42.157Z,10.70
2019-04-26T05:29:27.296Z,10.68
2019-04-26T05:32:27.519Z,10.68
2019-04-26T05:35:42.088Z,10.70
2019-04-26T05:38:53.267Z,10.68
2019-04-26T05:42:00.711Z,10.77
2019-04-26T05:44:45.215Z,10.82
2019-04-26T05:47:33.253Z,10.89
2019-04-26T05:50:43.763Z,10.88
2019-04-26T05:53:55.406Z,10.87
2019-04-26T05:56:48.581Z,10.85
2019-04-26T05:59:37.935Z,11.04
2019-04-26T06:02:32.223Z,11.15
2019-04-26T06:05:28.655Z,11.26
2019-04-26T06:08:38.694Z,11.26
2019-04-26T06:11:14.473Z,11.26
2019-04-26T06:14:34.792Z,11.29
2019-04-26T06:17:38.838Z,11.32
2019-04-26T06:20:28.096Z,11.32
2019-04-26T06:23:18.760Z,11.32
2019-04-26T06:26:03.338Z,11.35
2019-04-26T06:28:56.405Z,11.37
2019-04-26T06:31:36.070Z,11.29
2019-04-26T06:36:32.375Z,11.32
2019-04-26T06:39:14.109Z,11.22
2019-04-26T06:42:08.604Z,11.20
2019-04-26T06:45:19.820Z,11.13
2019-04-26T06:48:02.309Z,11.12
2019-04-26T06:50:59.752Z,11.10
2019-04-26T06:53:54.981Z,11.08
2019-04-26T06:56:50.388Z,11.16
2019-04-26T06:59:48.778Z,11.11
2019-04-26T07:02:51.968Z,11.05
2019-04-26T07:05:28.187Z,11.06
2019-04-26T07:08:42.856Z,11.03
2019-04-26T07:11:44.176Z,11.09
2019-04-26T07:15:05.982Z,11.05
2019-04-26T07:18:12.894Z,11.05
2019-04-26T07:21:14.715Z,11.04
2019-04-26T07:24:09.902Z,11.09
2019-04-26T07:27:10.959Z,11.03
2019-04-26T07:30:06.217Z,11.09
2019-04-26T07:33:04.158Z,11.06
2019-04-26T07:35:50.208Z,11.07
2019-04-26T07:38:54.151Z,10.95
2019-04-26T07:41:51.480Z,10.86
2019-04-26T07:44:36.002Z,10.82
2019-04-26T07:47:39.983Z,10.78
2019-04-26T07:50:28.928Z,10.80
2019-04-26T07:53:33.628Z,10.67
2019-04-26T07:56:13.562Z,10.71
2019-04-26T07:59:08.671Z,10.63
2019-04-26T08:02:03.737Z,10.64
2019-04-26T08:04:41.777Z,10.63
2019-04-26T08:07:21.672Z,10.62
2019-04-26T08:09:59.989Z,10.58
2019-04-26T08:12:33.071Z,10.45
2019-04-26T08:15:09.262Z,10.45
2019-04-26T08:17:46.530Z,10.44
2019-04-26T08:20:48.459Z,10.42
2019-04-26T08:23:39.264Z,10.32
2019-04-26T08:25:57.935Z,10.29
2019-04-26T08:28:31.132Z,10.30
2019-04-26T08:31:05.958Z,10.28
2019-04-26T08:33:48.553Z,10.26
2019-04-26T08:36:17.613Z,10.25
2019-04-26T08:38:52.433Z,10.26
2019-04-26T08:41:22.607Z,10.28
2019-04-26T08:44:03.724Z,10.32
2019-04-26T08:46:47.696Z,10.34
2019-04-26T08:49:19.286Z,10.35
2019-04-26T08:51:52.175Z,10.35
2019-04-26T08:54:24.122Z,10.34
2019-04-26T08:57:00.933Z,10.28
2019-04-26T08:59:37.134Z,10.31
2019-04-26T09:02:24.852Z,10.35
2019-04-26T09:05:07.198Z,10.45
2019-04-26T09:07:41.108Z,10.50
2019-04-26T09:10:14.324Z,10.50
2019-04-26T09:12:45.758Z,10.53
2019-04-26T09:15:19.895Z,10.58
2019-04-26T09:17:49.667Z,10.62
2019-04-26T09:20:28.504Z,10.62
2019-04-26T09:23:03.823Z,10.68
2019-04-26T09:25:37.061Z,10.72
2019-04-26T09:28:15.615Z,10.74
2019-04-26T09:31:01.379Z,10.87
2019-04-26T09:33:44.925Z,10.84
2019-04-26T09:36:14.488Z,10.83
2019-04-26T09:38:44.284Z,10.82
2019-04-26T09:41:14.026Z,10.87
2019-04-26T09:43:47.707Z,10.87
2019-04-26T09:46:29.090Z,10.86
2019-04-26T09:49:03.075Z,10.87
2019-04-26T09:51:34.851Z,10.91
2019-04-26T09:54:02.538Z,10.85
2019-04-26T09:56:32.227Z,10.88
2019-04-26T09:59:05.569Z,10.87
2019-04-26T10:01:33.599Z,10.86
2019-04-26T10:04:03.045Z,10.87
2019-04-26T10:06:32.485Z,10.82
2019-04-26T10:09:02.190Z,10.87
2019-04-26T10:11:33.516Z,10.87
2019-04-26T10:14:04.598Z,10.93
2019-04-26T10:16:37.580Z,10.93
2019-04-26T10:19:08.851Z,10.94
2019-04-26T10:21:38.297Z,11.05
2019-04-26T10:24:08.415Z,11.00
2019-04-26T10:26:38.450Z,11.00
2019-04-26T10:29:08.043Z,10.97
2019-04-26T10:31:37.650Z,10.99
2019-04-26T10:34:07.648Z,10.99
2019-04-26T10:36:38.459Z,11.03
2019-04-26T10:39:10.233Z,11.07
2019-04-26T10:41:39.931Z,11.16
2019-04-26T10:44:10.133Z,11.13
2019-04-26T10:46:39.579Z,11.09
2019-04-26T10:49:47.390Z,11.08
2019-04-26T10:52:25.242Z,11.10
2019-04-26T10:55:05.923Z,11.01
2019-04-26T10:57:41.228Z,11.03
2019-04-26T11:00:23.715Z,10.90
2019-04-26T11:02:53.268Z,10.78
2019-04-26T11:05:23.130Z,10.72
2019-04-26T11:07:53.493Z,10.69
2019-04-26T11:10:27.629Z,10.65
2019-04-26T11:12:57.060Z,10.62
2019-04-26T11:15:29.052Z,10.64
2019-04-26T11:17:58.012Z,10.66
2019-04-26T11:20:28.043Z,10.59
2019-04-26T11:22:57.475Z,10.63
2019-04-26T11:25:28.161Z,10.59
2019-04-26T11:27:58.094Z,10.65
2019-04-26T11:30:27.615Z,10.69
2019-04-26T11:32:57.049Z,10.74
2019-04-26T11:35:29.321Z,10.67
2019-04-26T11:37:57.762Z,10.70
2019-04-26T11:40:27.464Z,10.75
2019-04-26T11:42:57.168Z,10.72
2019-04-26T11:45:26.877Z,10.80
2019-04-26T11:47:56.753Z,10.81
2019-04-26T11:50:26.465Z,10.94
2019-04-26T11:52:55.892Z,10.97
2019-04-26T11:55:29.632Z,11.01
2019-04-26T11:57:56.965Z,10.99
2019-04-26T12:00:28.041Z,11.00
2019-04-26T12:02:57.750Z,11.01
2019-04-26T12:05:44.311Z,11.00
2019-04-26T12:08:13.514Z,11.02
2019-04-26T12:10:44.399Z,11.06
2019-04-26T12:13:14.384Z,11.11
2019-04-26T12:15:45.411Z,11.16
2019-04-26T12:18:15.229Z,11.28
2019-04-26T12:20:44.727Z,11.41
2019-04-26T12:23:20.328Z,11.46
2019-04-26T12:25:48.085Z,11.74
2019-04-26T12:28:17.391Z,11.96
2019-04-26T12:30:47.136Z,12.00
2019-04-26T12:33:16.574Z,11.99
2019-04-26T12:35:46.016Z,11.87
2019-04-26T12:38:15.460Z,11.81
2019-04-26T12:40:46.124Z,11.83
2019-04-26T12:43:20.012Z,11.88
2019-04-26T12:45:51.526Z,11.84
2019-04-26T12:48:26.162Z,11.81
2019-04-26T12:50:55.835Z,11.72
2019-04-26T12:53:26.731Z,11.79
2019-04-26T12:55:58.409Z,11.79
2019-04-26T12:58:28.277Z,11.78
2019-04-26T13:00:59.109Z,11.82
2019-04-26T13:03:29.320Z,11.91
2019-04-26T13:06:00.245Z,11.85
2019-04-26T13:08:29.982Z,11.72
2019-04-26T13:11:02.034Z,11.82
2019-04-26T13:13:33.352Z,11.79
2019-04-26T13:16:26.349Z,11.67
2019-04-26T13:18:53.814Z,11.64
2019-04-26T13:21:23.260Z,11.62
2019-04-26T13:23:53.017Z,11.58
2019-04-26T13:26:22.723Z,11.61
2019-04-26T13:28:56.561Z,11.59
2019-04-26T13:31:31.105Z,11.55
2019-04-26T13:33:58.318Z,11.37
2019-04-26T13:36:29.071Z,11.23
2019-04-26T13:38:57.720Z,11.33
2019-04-26T13:41:28.010Z,11.25
2019-04-26T13:44:01.204Z,11.22
2019-04-26T13:46:45.717Z,11.25
2019-04-26T13:49:18.151Z,11.33
2019-04-26T13:51:48.679Z,11.43
2019-04-26T13:54:21.172Z,11.37
2019-04-26T13:56:49.576Z,11.26
2019-04-26T13:59:19.353Z,11.27
2019-04-26T14:01:49.059Z,11.32
2019-04-26T14:04:18.517Z,11.37
2019-04-26T14:06:47.947Z,11.46
2019-04-26T14:09:17.378Z,11.46
2019-04-26T14:11:46.845Z,11.59
2019-04-26T14:14:16.278Z,11.63
2019-04-26T14:16:45.725Z,11.53
2019-04-26T14:19:16.761Z,11.53
2019-04-26T14:21:47.481Z,11.54
2019-04-26T14:24:19.777Z,11.56
2019-04-26T14:26:51.890Z,11.56
2019-04-26T14:29:21.327Z,11.58
2019-04-26T14:31:53.111Z,11.61
2019-04-26T14:34:23.281Z,11.65
2019-04-26T14:37:05.793Z,11.69
2019-04-26T14:39:38.402Z,11.74
2019-04-26T14:41:57.118Z,11.76
2019-04-26T14:44:30.941Z,11.94
2019-04-26T14:46:58.500Z,12.02
2019-04-26T14:49:38.581Z,12.02
2019-04-26T14:51:59.348Z,12.03
2019-04-26T14:54:28.847Z,12.05
2019-04-26T14:56:59.859Z,12.06
2019-04-26T14:59:47.206Z,12.23
2019-04-26T15:02:27.272Z,12.32
2019-04-26T15:05:15.091Z,12.43
2019-04-26T15:07:50.976Z,12.45
2019-04-26T15:10:17.365Z,12.47
2019-04-26T15:12:48.907Z,12.44
2019-04-26T15:15:17.996Z,12.50
2019-04-26T15:17:47.732Z,12.56
2019-04-26T15:20:20.827Z,12.41
2019-04-26T15:22:50.131Z,12.36
2019-04-26T15:25:19.550Z,12.54
2019-04-26T15:27:49.026Z,12.62
2019-04-26T15:30:18.433Z,12.62
2019-04-26T15:32:48.122Z,12.55
2019-04-26T15:35:18.158Z,12.63
2019-04-26T15:37:47.947Z,12.63
2019-04-26T15:40:34.886Z,12.75
2019-04-26T15:43:14.874Z,12.72
2019-04-26T15:45:55.501Z,12.86
2019-04-26T15:48:43.066Z,12.91
2019-04-26T15:51:14.656Z,12.98
2019-04-26T15:53:48.694Z,12.91
2019-04-26T15:56:17.724Z,12.87
2019-04-26T15:58:48.945Z,12.76
2019-04-26T16:01:18.475Z,12.78
2019-04-26T16:03:48.179Z,12.81
2019-04-26T16:06:17.923Z,12.80
2019-04-26T16:08:47.633Z,12.81
2019-04-26T16:11:17.082Z,12.73
2019-04-26T16:13:53.864Z,12.77
2019-04-26T16:16:20.577Z,12.68
2019-04-26T16:18:53.397Z,12.66
2019-04-26T16:21:21.816Z,12.64
2019-04-26T16:23:55.134Z,12.69
2019-04-26T16:26:23.280Z,12.67
2019-04-26T16:29:04.578Z,12.68
2019-04-26T16:31:34.335Z,12.60
2019-04-26T16:34:10.452Z,12.64
2019-04-26T16:36:43.839Z,12.53
2019-04-26T16:39:13.100Z,12.37
2019-04-26T16:41:42.621Z,12.40
2019-04-26T16:44:13.021Z,12.41
2019-04-26T16:46:43.838Z,12.34
2019-04-26T16:49:14.252Z,12.47
2019-04-26T16:51:43.817Z,12.41
2019-04-26T16:56:44.796Z,12.32
2019-04-26T16:59:22.674Z,12.18
2019-04-26T17:01:47.468Z,12.21
2019-04-26T17:04:20.161Z,12.22
2019-04-26T17:06:48.837Z,12.23
2019-04-26T17:09:18.299Z,12.17
2019-04-26T17:09:38.415Z,12.38
2019-04-26T17:11:47.723Z,12.21
2019-04-26T17:14:17.447Z,12.21
2019-04-26T17:16:46.898Z,12.19
2019-04-26T17:19:16.575Z,12.14
2019-04-26T17:21:56.521Z,12.19
2019-04-26T17:24:26.973Z,12.30
2019-04-26T17:27:05.384Z,12.28
2019-04-26T17:29:35.485Z,12.16
2019-04-26T17:32:09.104Z,12.07
2019-04-26T17:34:40.249Z,12.08
2019-04-26T17:37:12.769Z,12.24
2019-04-26T17:39:40.801Z,12.05
2019-04-26T17:42:10.670Z,12.09
2019-04-26T17:44:41.279Z,12.09
2019-04-26T17:47:10.772Z,12.11
2019-04-26T17:49:43.758Z,12.13
2019-04-26T17:52:11.979Z,12.06
2019-04-26T17:54:48.816Z,12.01
2019-04-26T17:57:15.144Z,12.00
2019-04-26T17:59:47.765Z,11.99
2019-04-26T18:02:31.558Z,12.04
2019-04-26T18:04:58.039Z,12.06
2019-04-26T18:07:37.582Z,12.04
2019-04-26T18:09:50.696Z,12.05
2019-04-26T18:12:21.307Z,12.09
2019-04-26T18:14:50.745Z,12.04
2019-04-26T18:17:23.176Z,12.04
2019-04-26T18:20:00.675Z,11.97
2019-04-26T18:22:36.617Z,11.99
2019-04-26T18:25:11.287Z,11.93
2019-04-26T18:27:39.047Z,11.92
2019-04-26T18:30:12.251Z,11.90
2019-04-26T18:32:45.734Z,11.86
2019-04-26T18:35:15.221Z,11.87
2019-04-26T18:37:43.796Z,11.86
2019-04-26T18:40:13.502Z,11.87
2019-04-26T18:42:43.457Z,11.82
2019-04-26T18:45:13.923Z,11.79
2019-04-26T18:47:45.263Z,11.76
2019-04-26T18:50:18.754Z,11.77
2019-04-26T18:52:52.954Z,11.86
2019-04-26T18:55:29.183Z,11.92
2019-04-26T18:58:01.508Z,11.85
2019-04-26T19:00:29.607Z,11.83
2019-04-26T19:03:00.101Z,11.82
2019-04-26T19:05:30.283Z,11.79
2019-04-26T19:07:59.777Z,11.71
2019-04-26T19:10:29.476Z,11.73
2019-04-26T19:13:07.270Z,11.66
2019-04-26T19:15:44.029Z,11.63
2019-04-26T19:18:15.427Z,11.55
2019-04-26T19:20:47.548Z,11.54
2019-04-26T19:23:17.046Z,11.54
2019-04-26T19:25:46.801Z,11.60
2019-04-26T19:28:16.251Z,11.66
2019-04-26T19:30:49.336Z,11.53
2019-04-26T19:33:18.505Z,11.53
2019-04-26T19:35:48.291Z,11.46
2019-04-26T19:38:17.803Z,11.44
2019-04-26T19:40:48.075Z,11.41
2019-04-26T19:43:28.154Z,11.33
2019-04-26T19:45:51.885Z,11.31
2019-04-26T19:48:25.892Z,11.36
2019-04-26T19:50:56.250Z,11.29
2019-04-26T19:53:42.652Z,11.27
2019-04-26T19:56:27.716Z,11.24
2019-04-26T19:58:57.696Z,11.18
2019-04-26T20:01:28.787Z,11.13
2019-04-26T20:03:58.231Z,11.12
2019-04-26T20:06:27.985Z,11.15
2019-04-26T20:08:57.426Z,11.14
2019-04-26T20:11:26.894Z,11.11
2019-04-26T20:13:56.307Z,11.11
2019-04-26T20:16:26.123Z,11.10
2019-04-26T20:18:55.528Z,11.05
2019-04-26T20:21:25.232Z,11.03
2019-04-26T20:23:54.934Z,11.10
2019-04-26T20:26:24.369Z,11.09
2019-04-26T20:28:53.812Z,11.04
2019-04-26T20:31:25.284Z,11.02
2019-04-26T20:33:54.731Z,10.99
2019-04-26T20:36:24.495Z,11.07
2019-04-26T20:38:53.941Z,11.05
2019-04-26T20:41:23.718Z,11.09
2019-04-26T20:44:05.223Z,11.07
2019-04-26T20:46:25.198Z,11.00
2019-04-26T20:48:54.702Z,11.01
2019-04-26T20:51:24.504Z,10.97
2019-04-26T20:53:53.946Z,11.01
2019-04-26T20:56:23.719Z,10.97
2019-04-26T20:58:53.175Z,10.91
2019-04-26T21:01:22.600Z,10.96
2019-04-26T21:03:52.047Z,10.94
2019-04-26T21:06:22.299Z,10.97
2019-04-26T21:08:54.028Z,10.89
2019-04-26T21:11:23.369Z,10.90
2019-04-26T21:13:53.210Z,10.94
2019-04-26T21:16:23.021Z,10.84
2019-04-26T21:18:52.575Z,10.88
2019-04-26T21:21:22.287Z,10.86
2019-04-26T21:23:52.558Z,10.65
2019-04-26T21:26:26.618Z,10.71
2019-04-26T21:29:06.644Z,10.73
2019-04-26T21:31:40.910Z,10.70
2019-04-26T21:34:13.868Z,10.66
2019-04-26T21:36:44.116Z,10.72
2019-04-26T21:39:31.665Z,10.80
2019-04-26T21:42:03.562Z,10.68
2019-04-26T21:44:33.897Z,10.59
2019-04-26T21:47:04.893Z,10.61
2019-04-26T21:49:36.681Z,10.66
2019-04-26T21:52:05.976Z,10.72
2019-04-26T21:54:35.759Z,10.63
2019-04-26T21:57:05.466Z,10.58
2019-04-26T21:59:40.878Z,10.53
2019-04-26T22:02:07.520Z,10.46
2019-04-26T22:04:37.766Z,10.51
2019-04-26T22:07:07.857Z,10.48
2019-04-26T22:09:52.802Z,10.46
2019-04-26T22:12:23.310Z,10.43
2019-04-26T22:14:58.016Z,10.47
2019-04-26T22:17:30.484Z,10.45
2019-04-26T22:20:06.631Z,10.42
2019-04-26T22:22:53.142Z,10.41
2019-04-26T22:25:24.227Z,10.46
2019-04-26T22:28:00.088Z,10.37
2019-04-26T22:30:28.286Z,10.30
2019-04-26T22:32:58.556Z,10.29
2019-04-26T22:35:28.445Z,10.29
2019-04-26T22:37:57.885Z,10.30
2019-04-26T22:40:27.339Z,10.33
2019-04-26T22:42:58.712Z,10.25
2019-04-26T22:45:39.537Z,10.27
2019-04-26T22:48:11.510Z,10.25
2019-04-26T22:50:41.095Z,10.29
2019-04-26T22:53:13.243Z,10.17
2019-04-26T22:55:43.577Z,10.18
2019-04-26T22:58:13.586Z,10.21
2019-04-26T23:00:43.969Z,10.14
2019-04-26T23:03:14.396Z,9.98
2019-04-26T23:05:44.102Z,9.95
2019-04-26T23:08:13.805Z,10.01
2019-04-26T23:10:45.161Z,10.07
2019-04-26T23:13:25.208Z,10.06
2019-04-26T23:16:14.380Z,10.05
2019-04-26T23:18:46.645Z,9.98
2019-04-26T23:21:18.042Z,9.96
2019-04-26T23:23:47.723Z,10.00
2019-04-26T23:26:17.161Z,9.94
2019-04-26T23:28:46.607Z,9.87
2019-04-26T23:31:16.038Z,9.86
2019-04-26T23:33:45.818Z,9.90
2019-04-26T23:36:18.444Z,9.83
2019-04-26T23:38:46.674Z,9.76
2019-04-26T23:41:16.115Z,9.77
2019-04-26T23:43:45.889Z,9.76
2019-04-26T23:46:18.887Z,9.83
2019-04-26T23:48:49.616Z,9.80
2019-04-26T23:51:17.622Z,9.73
2019-04-26T23:53:50.490Z,9.71
2019-04-26T23:56:22.239Z,9.67
2019-04-26T23:58:49.932Z,9.68
